sensor_id;sensor_type;location;lat;lon;timestamp;temperature;humidity
17859;DHT22;35426;30.698;104.050;2022-11-15T00:02:28;12.30;99.90
17859;DHT22;35426;30.698;104.050;2022-11-15T00:05:20;12.30;99.90
17859;DHT22;35426;30.698;104.050;2022-11-15T00:08:13;12.40;99.90
17859;DHT22;35426;30.698;104.050;2022-11-15T00:11:06;12.30;99.90
17859;DHT22;35426;30.698;104.050;2022-11-15T00:14:04;12.50;99.90
17859;DHT22;35426;30.698;104.050;2022-11-15T00:16:56;12.50;99.90
17859;DHT22;35426;30.698;104.050;2022-11-15T00:19:49;12.50;99.90
17859;DHT22;35426;30.698;104.050;2022-11-15T00:22:42;12.50;99.90
17859;DHT22;35426;30.698;104.050;2022-11-15T00:25:34;12.50;99.90
17859;DHT22;35426;30.698;104.050;2022-11-15T00:28:28;12.70;99.90
17859;DHT22;35426;30.698;104.050;2022-11-15T00:31:21;12.80;99.90
17859;DHT22;35426;30.698;104.050;2022-11-15T00:34:14;13.00;99.90
17859;DHT22;35426;30.698;104.050;2022-11-15T00:37:07;12.90;99.90
17859;DHT22;35426;30.698;104.050;2022-11-15T00:40:00;13.10;99.90
17859;DHT22;35426;30.698;104.050;2022-11-15T00:42:54;13.30;99.90
17859;DHT22;35426;30.698;104.050;2022-11-15T00:45:47;13.20;99.90
17859;DHT22;35426;30.698;104.050;2022-11-15T00:48:42;13.50;99.90
17859;DHT22;35426;30.698;104.050;2022-11-15T00:51:34;13.50;99.90
17859;DHT22;35426;30.698;104.050;2022-11-15T00:54:27;13.60;99.90
17859;DHT22;35426;30.698;104.050;2022-11-15T00:57:26;13.80;99.90
17859;DHT22;35426;30.698;104.050;2022-11-15T01:00:19;14.00;99.90
17859;DHT22;35426;30.698;104.050;2022-11-15T01:03:12;14.00;99.90
17859;DHT22;35426;30.698;104.050;2022-11-15T01:06:07;14.10;99.90
17859;DHT22;35426;30.698;104.050;2022-11-15T01:09:00;14.30;99.90
17859;DHT22;35426;30.698;104.050;2022-11-15T01:11:55;14.10;99.90
17859;DHT22;35426;30.698;104.050;2022-11-15T01:14:48;14.10;99.90
17859;DHT22;35426;30.698;104.050;2022-11-15T01:17:41;14.40;99.90
17859;DHT22;35426;30.698;104.050;2022-11-15T01:20:34;14.20;99.90
17859;DHT22;35426;30.698;104.050;2022-11-15T01:23:33;14.30;99.90
17859;DHT22;35426;30.698;104.050;2022-11-15T01:26:26;14.40;99.90
17859;DHT22;35426;30.698;104.050;2022-11-15T01:29:19;14.70;99.90
17859;DHT22;35426;30.698;104.050;2022-11-15T01:32:13;15.00;99.90
17859;DHT22;35426;30.698;104.050;2022-11-15T01:35:06;15.20;99.90
17859;DHT22;35426;30.698;104.050;2022-11-15T01:37:58;15.70;99.90
17859;DHT22;35426;30.698;104.050;2022-11-15T01:40:53;15.90;99.90
17859;DHT22;35426;30.698;104.050;2022-11-15T01:43:48;16.10;99.90
17859;DHT22;35426;30.698;104.050;2022-11-15T01:46:44;16.40;99.90
17859;DHT22;35426;30.698;104.050;2022-11-15T01:49:52;16.90;99.90
17859;DHT22;35426;30.698;104.050;2022-11-15T01:52:48;16.70;99.90
17859;DHT22;35426;30.698;104.050;2022-11-15T01:55:41;16.70;99.90
17859;DHT22;35426;30.698;104.050;2022-11-15T01:58:35;16.10;99.90
17859;DHT22;35426;30.698;104.050;2022-11-15T02:01:29;15.90;99.90
17859;DHT22;35426;30.698;104.050;2022-11-15T02:04:26;15.90;99.90
17859;DHT22;35426;30.698;104.050;2022-11-15T02:07:21;15.60;99.90
17859;DHT22;35426;30.698;104.050;2022-11-15T02:10:17;15.30;99.90
17859;DHT22;35426;30.698;104.050;2022-11-15T02:13:10;15.50;99.90
17859;DHT22;35426;30.698;104.050;2022-11-15T02:16:13;15.30;99.90
17859;DHT22;35426;30.698;104.050;2022-11-15T02:19:20;15.20;99.90
17859;DHT22;35426;30.698;104.050;2022-11-15T02:22:27;15.30;99.90
17859;DHT22;35426;30.698;104.050;2022-11-15T02:25:41;15.90;99.90
17859;DHT22;35426;30.698;104.050;2022-11-15T02:28:52;15.70;99.90
17859;DHT22;35426;30.698;104.050;2022-11-15T02:31:53;15.80;99.90
17859;DHT22;35426;30.698;104.050;2022-11-15T02:34:54;16.00;99.90
17859;DHT22;35426;30.698;104.050;2022-11-15T02:37:53;15.70;99.90
17859;DHT22;35426;30.698;104.050;2022-11-15T02:40:53;15.30;99.90
17859;DHT22;35426;30.698;104.050;2022-11-15T02:43:53;15.30;99.90
17859;DHT22;35426;30.698;104.050;2022-11-15T02:46:51;15.30;99.90
17859;DHT22;35426;30.698;104.050;2022-11-15T02:50:08;15.20;99.90
17859;DHT22;35426;30.698;104.050;2022-11-15T02:53:02;15.10;99.90
17859;DHT22;35426;30.698;104.050;2022-11-15T02:55:56;15.00;99.90
17859;DHT22;35426;30.698;104.050;2022-11-15T02:59:22;15.20;99.90
17859;DHT22;35426;30.698;104.050;2022-11-15T03:02:31;15.40;99.90
17859;DHT22;35426;30.698;104.050;2022-11-15T03:05:34;15.50;99.90
17859;DHT22;35426;30.698;104.050;2022-11-15T03:08:31;15.80;99.90
17859;DHT22;35426;30.698;104.050;2022-11-15T03:11:24;15.60;99.90
17859;DHT22;35426;30.698;104.050;2022-11-15T03:14:23;15.50;99.90
17859;DHT22;35426;30.698;104.050;2022-11-15T03:17:22;15.60;99.90
17859;DHT22;35426;30.698;104.050;2022-11-15T03:20:27;16.00;99.90
17859;DHT22;35426;30.698;104.050;2022-11-15T03:23:21;16.00;99.90
17859;DHT22;35426;30.698;104.050;2022-11-15T03:26:16;16.00;99.90
17859;DHT22;35426;30.698;104.050;2022-11-15T03:29:12;16.50;99.90
17859;DHT22;35426;30.698;104.050;2022-11-15T03:32:09;16.80;99.90
17859;DHT22;35426;30.698;104.050;2022-11-15T03:35:08;16.70;99.90
17859;DHT22;35426;30.698;104.050;2022-11-15T03:38:06;17.10;99.90
17859;DHT22;35426;30.698;104.050;2022-11-15T03:41:04;17.50;99.90
17859;DHT22;35426;30.698;104.050;2022-11-15T03:44:02;17.70;99.90
17859;DHT22;35426;30.698;104.050;2022-11-15T03:47:02;17.40;99.90
17859;DHT22;35426;30.698;104.050;2022-11-15T03:49:59;17.30;99.90
17859;DHT22;35426;30.698;104.050;2022-11-15T03:52:55;17.80;99.90
17859;DHT22;35426;30.698;104.050;2022-11-15T03:55:48;17.70;99.90
17859;DHT22;35426;30.698;104.050;2022-11-15T03:58:40;17.20;99.90
17859;DHT22;35426;30.698;104.050;2022-11-15T04:01:32;17.20;99.90
17859;DHT22;35426;30.698;104.050;2022-11-15T04:04:24;17.30;99.90
17859;DHT22;35426;30.698;104.050;2022-11-15T04:07:17;17.80;99.90
17859;DHT22;35426;30.698;104.050;2022-11-15T04:10:15;18.30;99.90
17859;DHT22;35426;30.698;104.050;2022-11-15T04:13:08;18.40;99.90
17859;DHT22;35426;30.698;104.050;2022-11-15T04:16:00;18.40;99.90
17859;DHT22;35426;30.698;104.050;2022-11-15T04:18:56;18.20;99.90
17859;DHT22;35426;30.698;104.050;2022-11-15T04:22:03;18.70;99.90
17859;DHT22;35426;30.698;104.050;2022-11-15T04:25:13;18.80;99.90
17859;DHT22;35426;30.698;104.050;2022-11-15T04:28:10;18.50;99.90
17859;DHT22;35426;30.698;104.050;2022-11-15T04:31:03;18.00;99.90
17859;DHT22;35426;30.698;104.050;2022-11-15T04:34:03;18.00;99.90
17859;DHT22;35426;30.698;104.050;2022-11-15T04:36:57;18.00;99.90
17859;DHT22;35426;30.698;104.050;2022-11-15T04:40:05;18.20;99.90
17859;DHT22;35426;30.698;104.050;2022-11-15T04:43:00;18.30;99.90
17859;DHT22;35426;30.698;104.050;2022-11-15T04:45:52;18.30;99.90
17859;DHT22;35426;30.698;104.050;2022-11-15T04:48:45;18.20;99.90
17859;DHT22;35426;30.698;104.050;2022-11-15T04:51:43;17.90;99.90
17859;DHT22;35426;30.698;104.050;2022-11-15T04:54:36;18.10;99.90
17859;DHT22;35426;30.698;104.050;2022-11-15T04:57:31;18.10;99.90
17859;DHT22;35426;30.698;104.050;2022-11-15T05:00:25;18.10;99.90
17859;DHT22;35426;30.698;104.050;2022-11-15T05:03:18;18.40;99.90
17859;DHT22;35426;30.698;104.050;2022-11-15T05:06:27;18.30;99.90
17859;DHT22;35426;30.698;104.050;2022-11-15T05:09:21;18.20;99.90
17859;DHT22;35426;30.698;104.050;2022-11-15T05:12:14;18.00;99.90
17859;DHT22;35426;30.698;104.050;2022-11-15T05:15:06;18.20;99.90
17859;DHT22;35426;30.698;104.050;2022-11-15T05:18:01;17.90;99.90
17859;DHT22;35426;30.698;104.050;2022-11-15T05:20:53;17.70;99.90
17859;DHT22;35426;30.698;104.050;2022-11-15T05:23:46;17.70;99.90
17859;DHT22;35426;30.698;104.050;2022-11-15T05:26:39;17.30;99.90
17859;DHT22;35426;30.698;104.050;2022-11-15T05:29:31;16.50;99.90
17859;DHT22;35426;30.698;104.050;2022-11-15T05:32:25;16.50;99.90
17859;DHT22;35426;30.698;104.050;2022-11-15T05:35:22;16.20;99.90
17859;DHT22;35426;30.698;104.050;2022-11-15T05:38:17;16.30;99.90
17859;DHT22;35426;30.698;104.050;2022-11-15T05:41:11;16.40;99.90
17859;DHT22;35426;30.698;104.050;2022-11-15T05:44:07;16.30;99.90
17859;DHT22;35426;30.698;104.050;2022-11-15T05:47:01;16.20;99.90
17859;DHT22;35426;30.698;104.050;2022-11-15T05:49:56;16.30;99.90
17859;DHT22;35426;30.698;104.050;2022-11-15T05:52:52;16.20;99.90
17859;DHT22;35426;30.698;104.050;2022-11-15T05:55:52;16.00;99.90
17859;DHT22;35426;30.698;104.050;2022-11-15T05:58:45;15.70;99.90
17859;DHT22;35426;30.698;104.050;2022-11-15T06:01:43;15.80;99.90
17859;DHT22;35426;30.698;104.050;2022-11-15T06:04:36;15.70;99.90
17859;DHT22;35426;30.698;104.050;2022-11-15T06:07:29;15.80;99.90
17859;DHT22;35426;30.698;104.050;2022-11-15T06:10:25;15.70;99.90
17859;DHT22;35426;30.698;104.050;2022-11-15T06:13:17;15.70;99.90
17859;DHT22;35426;30.698;104.050;2022-11-15T06:16:09;15.50;99.90
17859;DHT22;35426;30.698;104.050;2022-11-15T06:19:02;15.60;99.90
17859;DHT22;35426;30.698;104.050;2022-11-15T06:21:55;15.60;99.90
17859;DHT22;35426;30.698;104.050;2022-11-15T06:24:47;15.60;99.90
17859;DHT22;35426;30.698;104.050;2022-11-15T06:27:44;15.70;99.90
17859;DHT22;35426;30.698;104.050;2022-11-15T06:30:43;15.80;99.90
17859;DHT22;35426;30.698;104.050;2022-11-15T06:33:40;15.80;99.90
17859;DHT22;35426;30.698;104.050;2022-11-15T06:36:35;15.80;99.90
17859;DHT22;35426;30.698;104.050;2022-11-15T06:39:27;15.70;99.90
17859;DHT22;35426;30.698;104.050;2022-11-15T06:42:19;15.90;99.90
17859;DHT22;35426;30.698;104.050;2022-11-15T06:45:14;15.90;99.90
17859;DHT22;35426;30.698;104.050;2022-11-15T06:48:10;15.80;99.90
17859;DHT22;35426;30.698;104.050;2022-11-15T06:51:03;15.60;99.90
17859;DHT22;35426;30.698;104.050;2022-11-15T06:53:55;15.60;99.90
17859;DHT22;35426;30.698;104.050;2022-11-15T06:56:49;15.50;99.90
17859;DHT22;35426;30.698;104.050;2022-11-15T06:59:41;15.50;99.90
17859;DHT22;35426;30.698;104.050;2022-11-15T07:02:35;15.70;99.90
17859;DHT22;35426;30.698;104.050;2022-11-15T07:05:28;15.70;99.90
17859;DHT22;35426;30.698;104.050;2022-11-15T07:08:21;15.50;99.90
17859;DHT22;35426;30.698;104.050;2022-11-15T07:11:14;15.40;99.90
17859;DHT22;35426;30.698;104.050;2022-11-15T07:14:07;15.30;99.90
17859;DHT22;35426;30.698;104.050;2022-11-15T07:16:59;15.30;99.90
17859;DHT22;35426;30.698;104.050;2022-11-15T07:19:56;15.30;99.90
17859;DHT22;35426;30.698;104.050;2022-11-15T07:22:48;15.50;99.90
17859;DHT22;35426;30.698;104.050;2022-11-15T07:25:40;15.40;99.90
17859;DHT22;35426;30.698;104.050;2022-11-15T07:28:33;15.30;99.90
17859;DHT22;35426;30.698;104.050;2022-11-15T07:31:26;15.30;99.90
17859;DHT22;35426;30.698;104.050;2022-11-15T07:34:19;15.30;99.90
17859;DHT22;35426;30.698;104.050;2022-11-15T07:37:14;15.30;99.90
17859;DHT22;35426;30.698;104.050;2022-11-15T07:40:08;15.40;99.90
17859;DHT22;35426;30.698;104.050;2022-11-15T07:43:04;15.40;99.90
17859;DHT22;35426;30.698;104.050;2022-11-15T07:45:58;15.30;99.90
17859;DHT22;35426;30.698;104.050;2022-11-15T07:48:49;15.20;99.90
17859;DHT22;35426;30.698;104.050;2022-11-15T07:51:42;15.40;99.90
17859;DHT22;35426;30.698;104.050;2022-11-15T07:54:36;15.40;99.90
17859;DHT22;35426;30.698;104.050;2022-11-15T07:57:29;15.50;99.90
17859;DHT22;35426;30.698;104.050;2022-11-15T08:00:21;15.60;99.90
17859;DHT22;35426;30.698;104.050;2022-11-15T08:03:15;15.60;99.90
17859;DHT22;35426;30.698;104.050;2022-11-15T08:06:08;15.30;99.90
17859;DHT22;35426;30.698;104.050;2022-11-15T08:09:01;15.40;99.90
17859;DHT22;35426;30.698;104.050;2022-11-15T08:11:55;15.30;99.90
17859;DHT22;35426;30.698;104.050;2022-11-15T08:14:49;15.30;99.90
17859;DHT22;35426;30.698;104.050;2022-11-15T08:17:41;15.40;99.90
17859;DHT22;35426;30.698;104.050;2022-11-15T08:20:34;15.50;99.90
17859;DHT22;35426;30.698;104.050;2022-11-15T08:23:26;15.60;99.90
17859;DHT22;35426;30.698;104.050;2022-11-15T08:26:19;15.50;99.90
17859;DHT22;35426;30.698;104.050;2022-11-15T08:29:14;15.30;99.90
17859;DHT22;35426;30.698;104.050;2022-11-15T08:32:07;15.20;99.90
17859;DHT22;35426;30.698;104.050;2022-11-15T08:34:59;15.20;99.90
17859;DHT22;35426;30.698;104.050;2022-11-15T08:37:54;15.30;99.90
17859;DHT22;35426;30.698;104.050;2022-11-15T08:40:47;15.30;99.90
17859;DHT22;35426;30.698;104.050;2022-11-15T08:46:51;15.20;99.90
17859;DHT22;35426;30.698;104.050;2022-11-15T08:49:43;15.10;99.90
17859;DHT22;35426;30.698;104.050;2022-11-15T08:52:35;15.10;99.90
17859;DHT22;35426;30.698;104.050;2022-11-15T08:55:29;15.30;99.90
17859;DHT22;35426;30.698;104.050;2022-11-15T08:58:21;15.30;99.90
17859;DHT22;35426;30.698;104.050;2022-11-15T09:01:17;15.20;99.90
17859;DHT22;35426;30.698;104.050;2022-11-15T09:04:12;15.20;99.90
17859;DHT22;35426;30.698;104.050;2022-11-15T09:07:06;15.10;99.90
17859;DHT22;35426;30.698;104.050;2022-11-15T09:09:58;15.10;99.90
17859;DHT22;35426;30.698;104.050;2022-11-15T09:12:51;15.10;99.90
17859;DHT22;35426;30.698;104.050;2022-11-15T09:15:44;15.20;99.90
17859;DHT22;35426;30.698;104.050;2022-11-15T09:18:36;15.20;99.90
17859;DHT22;35426;30.698;104.050;2022-11-15T09:21:30;15.20;99.90
17859;DHT22;35426;30.698;104.050;2022-11-15T09:24:23;15.10;99.90
17859;DHT22;35426;30.698;104.050;2022-11-15T09:27:16;15.10;99.90
17859;DHT22;35426;30.698;104.050;2022-11-15T09:30:09;15.10;99.90
17859;DHT22;35426;30.698;104.050;2022-11-15T09:33:08;15.10;99.90
17859;DHT22;35426;30.698;104.050;2022-11-15T09:36:06;15.20;99.90
17859;DHT22;35426;30.698;104.050;2022-11-15T09:39:04;15.10;99.90
17859;DHT22;35426;30.698;104.050;2022-11-15T09:42:23;15.10;99.90
17859;DHT22;35426;30.698;104.050;2022-11-15T09:45:22;15.10;99.90
17859;DHT22;35426;30.698;104.050;2022-11-15T09:48:39;15.00;99.90
17859;DHT22;35426;30.698;104.050;2022-11-15T09:51:38;15.10;99.90
17859;DHT22;35426;30.698;104.050;2022-11-15T09:54:32;15.00;99.90
17859;DHT22;35426;30.698;104.050;2022-11-15T09:57:31;15.10;99.90
17859;DHT22;35426;30.698;104.050;2022-11-15T10:00:13;15.10;99.90
17859;DHT22;35426;30.698;104.050;2022-11-15T10:03:12;14.90;99.90
17859;DHT22;35426;30.698;104.050;2022-11-15T10:05:48;14.90;99.90
17859;DHT22;35426;30.698;104.050;2022-11-15T10:11:25;14.90;99.90
17859;DHT22;35426;30.698;104.050;2022-11-15T10:14:12;14.90;99.90
17859;DHT22;35426;30.698;104.050;2022-11-15T10:17:26;14.90;99.90
17859;DHT22;35426;30.698;104.050;2022-11-15T10:20:13;14.90;99.90
17859;DHT22;35426;30.698;104.050;2022-11-15T10:22:52;14.70;99.90
17859;DHT22;35426;30.698;104.050;2022-11-15T10:25:29;14.70;99.90
17859;DHT22;35426;30.698;104.050;2022-11-15T10:28:13;14.70;99.90
17859;DHT22;35426;30.698;104.050;2022-11-15T10:30:49;14.60;99.90
17859;DHT22;35426;30.698;104.050;2022-11-15T10:33:34;14.60;99.90
17859;DHT22;35426;30.698;104.050;2022-11-15T10:36:19;14.60;99.90
17859;DHT22;35426;30.698;104.050;2022-11-15T10:38:59;14.60;99.90
17859;DHT22;35426;30.698;104.050;2022-11-15T10:41:38;14.60;99.90
17859;DHT22;35426;30.698;104.050;2022-11-15T10:44:21;14.60;99.90
17859;DHT22;35426;30.698;104.050;2022-11-15T10:50:31;14.40;99.90
17859;DHT22;35426;30.698;104.050;2022-11-15T10:53:15;14.50;99.90
17859;DHT22;35426;30.698;104.050;2022-11-15T10:55:55;14.50;99.90
17859;DHT22;35426;30.698;104.050;2022-11-15T10:58:36;14.50;99.90
17859;DHT22;35426;30.698;104.050;2022-11-15T11:01:16;14.50;99.90
17859;DHT22;35426;30.698;104.050;2022-11-15T11:04:03;14.40;99.90
17859;DHT22;35426;30.698;104.050;2022-11-15T11:06:48;14.40;99.90
17859;DHT22;35426;30.698;104.050;2022-11-15T11:09:32;14.40;99.90
17859;DHT22;35426;30.698;104.050;2022-11-15T11:12:10;14.40;99.90
17859;DHT22;35426;30.698;104.050;2022-11-15T11:14:45;14.40;99.90
17859;DHT22;35426;30.698;104.050;2022-11-15T11:17:27;14.40;99.90
17859;DHT22;35426;30.698;104.050;2022-11-15T11:20:09;14.40;99.90
17859;DHT22;35426;30.698;104.050;2022-11-15T11:22:56;14.40;99.90
17859;DHT22;35426;30.698;104.050;2022-11-15T11:25:39;14.50;99.90
17859;DHT22;35426;30.698;104.050;2022-11-15T11:28:25;14.50;99.90
17859;DHT22;35426;30.698;104.050;2022-11-15T11:31:20;14.40;99.90
17859;DHT22;35426;30.698;104.050;2022-11-15T11:34:09;14.40;99.90
17859;DHT22;35426;30.698;104.050;2022-11-15T11:36:53;14.30;99.90
17859;DHT22;35426;30.698;104.050;2022-11-15T11:39:42;14.30;99.90
17859;DHT22;35426;30.698;104.050;2022-11-15T11:42:36;14.30;99.90
17859;DHT22;35426;30.698;104.050;2022-11-15T11:45:18;14.30;99.90
17859;DHT22;35426;30.698;104.050;2022-11-15T11:48:01;14.30;99.90
17859;DHT22;35426;30.698;104.050;2022-11-15T11:50:42;14.20;99.90
17859;DHT22;35426;30.698;104.050;2022-11-15T11:53:28;14.30;99.90
17859;DHT22;35426;30.698;104.050;2022-11-15T11:56:11;14.30;99.90
17859;DHT22;35426;30.698;104.050;2022-11-15T11:58:49;14.30;99.90
17859;DHT22;35426;30.698;104.050;2022-11-15T12:01:26;14.20;99.90
17859;DHT22;35426;30.698;104.050;2022-11-15T12:04:09;14.20;99.90
17859;DHT22;35426;30.698;104.050;2022-11-15T12:06:56;14.20;99.90
17859;DHT22;35426;30.698;104.050;2022-11-15T12:09:38;14.30;99.90
17859;DHT22;35426;30.698;104.050;2022-11-15T12:12:17;14.30;99.90
17859;DHT22;35426;30.698;104.050;2022-11-15T12:14:56;14.30;99.90
17859;DHT22;35426;30.698;104.050;2022-11-15T12:17:33;14.30;99.90
17859;DHT22;35426;30.698;104.050;2022-11-15T12:20:16;14.30;99.90
17859;DHT22;35426;30.698;104.050;2022-11-15T12:22:55;14.30;99.90
17859;DHT22;35426;30.698;104.050;2022-11-15T12:25:34;14.40;99.90
17859;DHT22;35426;30.698;104.050;2022-11-15T12:28:17;14.30;99.90
17859;DHT22;35426;30.698;104.050;2022-11-15T12:30:56;14.20;99.90
17859;DHT22;35426;30.698;104.050;2022-11-15T12:33:38;14.30;99.90
17859;DHT22;35426;30.698;104.050;2022-11-15T12:36:32;14.30;99.90
17859;DHT22;35426;30.698;104.050;2022-11-15T12:39:11;14.10;99.90
17859;DHT22;35426;30.698;104.050;2022-11-15T12:44:59;14.30;99.90
17859;DHT22;35426;30.698;104.050;2022-11-15T12:47:36;14.30;99.90
17859;DHT22;35426;30.698;104.050;2022-11-15T12:50:14;14.20;99.90
17859;DHT22;35426;30.698;104.050;2022-11-15T12:56:22;14.20;99.90
17859;DHT22;35426;30.698;104.050;2022-11-15T12:58:57;14.20;99.90
17859;DHT22;35426;30.698;104.050;2022-11-15T13:01:59;14.20;99.90
17859;DHT22;35426;30.698;104.050;2022-11-15T13:04:34;14.20;99.90
17859;DHT22;35426;30.698;104.050;2022-11-15T13:07:09;14.20;99.90
17859;DHT22;35426;30.698;104.050;2022-11-15T13:10:29;14.10;99.90
17859;DHT22;35426;30.698;104.050;2022-11-15T13:13:09;14.20;99.90
17859;DHT22;35426;30.698;104.050;2022-11-15T13:15:55;14.20;99.90
17859;DHT22;35426;30.698;104.050;2022-11-15T13:18:34;14.10;99.90
17859;DHT22;35426;30.698;104.050;2022-11-15T13:21:22;14.10;99.90
17859;DHT22;35426;30.698;104.050;2022-11-15T13:24:16;14.10;99.90
17859;DHT22;35426;30.698;104.050;2022-11-15T13:26:50;14.10;99.90
17859;DHT22;35426;30.698;104.050;2022-11-15T13:29:28;14.10;99.90
17859;DHT22;35426;30.698;104.050;2022-11-15T13:32:03;14.00;99.90
17859;DHT22;35426;30.698;104.050;2022-11-15T13:34:43;14.00;99.90
17859;DHT22;35426;30.698;104.050;2022-11-15T13:37:31;14.00;99.90
17859;DHT22;35426;30.698;104.050;2022-11-15T13:40:27;14.00;99.90
17859;DHT22;35426;30.698;104.050;2022-11-15T13:43:26;13.90;99.90
17859;DHT22;35426;30.698;104.050;2022-11-15T13:46:12;13.90;99.90
17859;DHT22;35426;30.698;104.050;2022-11-15T13:48:53;13.90;99.90
17859;DHT22;35426;30.698;104.050;2022-11-15T13:51:33;14.00;99.90
17859;DHT22;35426;30.698;104.050;2022-11-15T13:54:16;14.00;99.90
17859;DHT22;35426;30.698;104.050;2022-11-15T13:56:55;13.90;99.90
17859;DHT22;35426;30.698;104.050;2022-11-15T13:59:33;13.90;99.90
17859;DHT22;35426;30.698;104.050;2022-11-15T14:02:16;14.00;99.90
17859;DHT22;35426;30.698;104.050;2022-11-15T14:04:57;14.00;99.90
17859;DHT22;35426;30.698;104.050;2022-11-15T14:07:31;14.00;99.90
17859;DHT22;35426;30.698;104.050;2022-11-15T14:10:35;13.90;99.90
17859;DHT22;35426;30.698;104.050;2022-11-15T14:13:28;13.90;99.90
17859;DHT22;35426;30.698;104.050;2022-11-15T14:16:17;14.00;99.90
17859;DHT22;35426;30.698;104.050;2022-11-15T14:18:59;14.00;99.90
17859;DHT22;35426;30.698;104.050;2022-11-15T14:21:37;14.00;99.90
17859;DHT22;35426;30.698;104.050;2022-11-15T14:24:19;13.90;99.90
17859;DHT22;35426;30.698;104.050;2022-11-15T14:26:56;13.90;99.90
17859;DHT22;35426;30.698;104.050;2022-11-15T14:29:32;14.00;99.90
17859;DHT22;35426;30.698;104.050;2022-11-15T14:32:14;14.00;99.90
17859;DHT22;35426;30.698;104.050;2022-11-15T14:34:55;13.90;99.90
17859;DHT22;35426;30.698;104.050;2022-11-15T14:37:36;13.80;99.90
17859;DHT22;35426;30.698;104.050;2022-11-15T14:40:14;13.90;99.90
17859;DHT22;35426;30.698;104.050;2022-11-15T14:42:51;14.10;99.90
17859;DHT22;35426;30.698;104.050;2022-11-15T14:45:29;14.20;99.90
17859;DHT22;35426;30.698;104.050;2022-11-15T14:48:06;14.20;99.90
17859;DHT22;35426;30.698;104.050;2022-11-15T14:50:46;13.90;99.90
17859;DHT22;35426;30.698;104.050;2022-11-15T14:53:21;13.80;99.90
17859;DHT22;35426;30.698;104.050;2022-11-15T14:55:57;13.70;99.90
17859;DHT22;35426;30.698;104.050;2022-11-15T14:58:32;13.80;99.90
17859;DHT22;35426;30.698;104.050;2022-11-15T15:01:14;13.90;99.90
17859;DHT22;35426;30.698;104.050;2022-11-15T15:03:51;14.00;99.90
17859;DHT22;35426;30.698;104.050;2022-11-15T15:06:31;14.10;99.90
17859;DHT22;35426;30.698;104.050;2022-11-15T15:09:07;14.10;99.90
17859;DHT22;35426;30.698;104.050;2022-11-15T15:11:46;13.90;99.90
17859;DHT22;35426;30.698;104.050;2022-11-15T15:14:24;14.00;99.90
17859;DHT22;35426;30.698;104.050;2022-11-15T15:16:59;14.00;99.90
17859;DHT22;35426;30.698;104.050;2022-11-15T15:19:36;14.10;99.90
17859;DHT22;35426;30.698;104.050;2022-11-15T15:22:16;14.20;99.90
17859;DHT22;35426;30.698;104.050;2022-11-15T15:24:53;14.10;99.90
17859;DHT22;35426;30.698;104.050;2022-11-15T15:27:29;14.00;99.90
17859;DHT22;35426;30.698;104.050;2022-11-15T15:30:05;13.90;99.90
17859;DHT22;35426;30.698;104.050;2022-11-15T15:32:40;13.90;99.90
17859;DHT22;35426;30.698;104.050;2022-11-15T15:35:15;13.80;99.90
17859;DHT22;35426;30.698;104.050;2022-11-15T15:37:53;13.80;99.90
17859;DHT22;35426;30.698;104.050;2022-11-15T15:40:29;13.80;99.90
17859;DHT22;35426;30.698;104.050;2022-11-15T15:43:04;13.70;99.90
17859;DHT22;35426;30.698;104.050;2022-11-15T15:45:41;13.70;99.90
17859;DHT22;35426;30.698;104.050;2022-11-15T15:48:16;13.60;99.90
17859;DHT22;35426;30.698;104.050;2022-11-15T15:50:51;13.70;99.90
17859;DHT22;35426;30.698;104.050;2022-11-15T15:53:28;13.60;99.90
17859;DHT22;35426;30.698;104.050;2022-11-15T15:56:02;13.70;99.90
17859;DHT22;35426;30.698;104.050;2022-11-15T15:58:57;13.80;99.90
17859;DHT22;35426;30.698;104.050;2022-11-15T16:01:31;13.90;99.90
17859;DHT22;35426;30.698;104.050;2022-11-15T16:04:05;13.90;99.90
17859;DHT22;35426;30.698;104.050;2022-11-15T16:06:44;13.80;99.90
17859;DHT22;35426;30.698;104.050;2022-11-15T16:09:23;13.90;99.90
17859;DHT22;35426;30.698;104.050;2022-11-15T16:12:11;13.90;99.90
17859;DHT22;35426;30.698;104.050;2022-11-15T16:14:48;14.00;99.90
17859;DHT22;35426;30.698;104.050;2022-11-15T16:17:26;14.00;99.90
17859;DHT22;35426;30.698;104.050;2022-11-15T16:20:05;14.00;99.90
17859;DHT22;35426;30.698;104.050;2022-11-15T16:22:41;13.90;99.90
17859;DHT22;35426;30.698;104.050;2022-11-15T16:25:20;13.90;99.90
17859;DHT22;35426;30.698;104.050;2022-11-15T16:27:56;13.80;99.90
17859;DHT22;35426;30.698;104.050;2022-11-15T16:30:32;13.80;99.90
17859;DHT22;35426;30.698;104.050;2022-11-15T16:33:09;13.80;99.90
17859;DHT22;35426;30.698;104.050;2022-11-15T16:35:44;13.80;99.90
17859;DHT22;35426;30.698;104.050;2022-11-15T16:38:19;13.90;99.90
17859;DHT22;35426;30.698;104.050;2022-11-15T16:40:56;13.90;99.90
17859;DHT22;35426;30.698;104.050;2022-11-15T16:43:30;14.00;99.90
17859;DHT22;35426;30.698;104.050;2022-11-15T16:46:14;14.00;99.90
17859;DHT22;35426;30.698;104.050;2022-11-15T16:48:53;14.00;99.90
17859;DHT22;35426;30.698;104.050;2022-11-15T16:51:28;13.90;99.90
17859;DHT22;35426;30.698;104.050;2022-11-15T16:54:04;13.80;99.90
17859;DHT22;35426;30.698;104.050;2022-11-15T16:56:41;13.70;99.90
17859;DHT22;35426;30.698;104.050;2022-11-15T16:59:16;13.80;99.90
17859;DHT22;35426;30.698;104.050;2022-11-15T17:01:51;13.70;99.90
17859;DHT22;35426;30.698;104.050;2022-11-15T17:04:25;13.60;99.90
17859;DHT22;35426;30.698;104.050;2022-11-15T17:07:21;13.60;99.90
17859;DHT22;35426;30.698;104.050;2022-11-15T17:09:56;13.70;99.90
17859;DHT22;35426;30.698;104.050;2022-11-15T17:12:33;13.90;99.90
17859;DHT22;35426;30.698;104.050;2022-11-15T17:15:09;13.80;99.90
17859;DHT22;35426;30.698;104.050;2022-11-15T17:17:45;13.70;99.90
17859;DHT22;35426;30.698;104.050;2022-11-15T17:20:25;13.70;99.90
17859;DHT22;35426;30.698;104.050;2022-11-15T17:23:00;13.70;99.90
17859;DHT22;35426;30.698;104.050;2022-11-15T17:25:37;13.70;99.90
17859;DHT22;35426;30.698;104.050;2022-11-15T17:28:14;13.70;99.90
17859;DHT22;35426;30.698;104.050;2022-11-15T17:30:48;13.70;99.90
17859;DHT22;35426;30.698;104.050;2022-11-15T17:33:23;13.60;99.90